Time;durP1;ratioP1;P1;durP2;ratioP2;P2;SDS_P1;SDS_P2;PMS_P1;PMS_P2;Temp;Humidity;BMP_temperature;BMP_pressure;BME280_temperature;BME280_humidity;BME280_pressure;Samples;Min_cycle;Max_cycle;Signal;HPM_P1;HPM_P2
2021/01/30 00:01:34;;;;;;;3.90;3.40;;;;;;;;;;5115642;28;20408;-65
2021/01/30 00:04:19;;;;;;;4.15;3.47;;;;;;;;;;5108086;28;20474;-65
2021/01/30 00:07:05;;;;;;;4.80;3.13;;;;;;;;;;5079961;28;20059;-64
2021/01/30 00:09:50;;;;;;;4.22;2.97;;;;;;;;;;5095179;28;20044;-65
2021/01/30 00:12:36;;;;;;;2.28;2.03;;;;;;;;;;5095027;28;20102;-65
2021/01/30 00:15:24;;;;;;;8.68;2.53;;;;;;;;;;5093296;28;20040;-65
2021/01/30 00:18:09;;;;;;;6.78;3.30;;;;;;;;;;5087793;28;20486;-65
2021/01/30 00:20:54;;;;;;;4.45;2.42;;;;;;;;;;5087832;28;20494;-64
2021/01/30 00:23:39;;;;;;;2.38;2.15;;;;;;;;;;5071648;28;20051;-64
2021/01/30 00:26:24;;;;;;;4.20;3.05;;;;;;;;;;5074540;28;20044;-65
2021/01/30 00:29:13;;;;;;;4.88;3.28;;;;;;;;;;5081237;28;20493;-65
2021/01/30 00:31:58;;;;;;;3.42;3.13;;;;;;;;;;5094655;28;20070;-64
2021/01/30 00:34:43;;;;;;;4.72;2.60;;;;;;;;;;5094467;28;20043;-64
2021/01/30 00:37:29;;;;;;;4.63;3.20;;;;;;;;;;5094690;28;20410;-65
2021/01/30 00:40:14;;;;;;;4.22;3.17;;;;;;;;;;5094137;28;20181;-64
2021/01/30 00:43:00;;;;;;;3.03;2.25;;;;;;;;;;5094572;28;20135;-65
2021/01/30 00:45:45;;;;;;;3.90;3.13;;;;;;;;;;5094060;28;20044;-65
2021/01/30 00:48:31;;;;;;;3.97;3.13;;;;;;;;;;5074221;28;20059;-64
2021/01/30 00:51:19;;;;;;;6.75;4.50;;;;;;;;;;5074299;28;20054;-65
2021/01/30 00:54:06;;;;;;;6.85;4.13;;;;;;;;;;5068649;28;20131;-65
2021/01/30 00:56:55;;;;;;;6.53;4.50;;;;;;;;;;5078889;28;20044;-65
2021/01/30 00:59:44;;;;;;;4.45;3.38;;;;;;;;;;5065624;28;20054;-65
2021/01/30 01:02:29;;;;;;;6.25;3.92;;;;;;;;;;5073749;28;20044;-65
2021/01/30 01:05:15;;;;;;;5.80;2.90;;;;;;;;;;5058817;28;20044;-65
2021/01/30 01:08:00;;;;;;;5.60;2.88;;;;;;;;;;5083251;28;20110;-64
2021/01/30 01:10:46;;;;;;;5.25;3.65;;;;;;;;;;5094131;28;20051;-65
2021/01/30 01:13:31;;;;;;;4.10;2.80;;;;;;;;;;5093741;28;20055;-65
2021/01/30 01:16:16;;;;;;;5.30;4.03;;;;;;;;;;5074935;28;20048;-65
2021/01/30 01:19:02;;;;;;;5.22;3.30;;;;;;;;;;5079824;28;20127;-64
2021/01/30 01:21:53;;;;;;;7.80;4.10;;;;;;;;;;5082806;28;20055;-65
2021/01/30 01:24:38;;;;;;;5.95;4.35;;;;;;;;;;5080091;28;20132;-64
2021/01/30 01:27:24;;;;;;;5.20;4.00;;;;;;;;;;5078457;28;20069;-65
2021/01/30 01:30:10;;;;;;;4.82;2.70;;;;;;;;;;5073347;28;20067;-65
2021/01/30 01:32:55;;;;;;;6.80;3.85;;;;;;;;;;5081353;28;20064;-65
2021/01/30 01:35:41;;;;;;;5.28;3.40;;;;;;;;;;5093690;28;20052;-64
2021/01/30 01:38:26;;;;;;;4.45;3.28;;;;;;;;;;5091947;28;20054;-64
2021/01/30 01:41:12;;;;;;;5.88;3.50;;;;;;;;;;5093329;28;20051;-65
2021/01/30 01:43:57;;;;;;;4.15;2.20;;;;;;;;;;5092306;28;20038;-64
2021/01/30 01:46:42;;;;;;;5.53;4.03;;;;;;;;;;5072866;28;20048;-64
2021/01/30 01:49:29;;;;;;;5.18;3.28;;;;;;;;;;5058431;28;20139;-65
2021/01/30 01:52:22;;;;;;;5.10;3.38;;;;;;;;;;5087098;28;20473;-64
2021/01/30 01:55:08;;;;;;;6.13;3.53;;;;;;;;;;5078055;28;20071;-63
2021/01/30 01:57:54;;;;;;;7.30;4.22;;;;;;;;;;5076809;28;20495;-64
2021/01/30 02:00:39;;;;;;;6.28;4.13;;;;;;;;;;5077895;28;20490;-64
2021/01/30 02:03:25;;;;;;;4.72;3.50;;;;;;;;;;5092946;28;20043;-64
2021/01/30 02:06:10;;;;;;;8.00;4.32;;;;;;;;;;5092662;28;20040;-64
2021/01/30 02:08:56;;;;;;;7.30;3.97;;;;;;;;;;5093085;28;20040;-64
2021/01/30 02:11:41;;;;;;;4.05;2.85;;;;;;;;;;5092417;28;20601;-65
2021/01/30 02:14:27;;;;;;;7.22;4.50;;;;;;;;;;5081735;22;20413;-64
2021/01/30 02:17:30;;;;;;;6.80;3.95;;;;;;;;;;5085151;28;20036;-64
2021/01/30 02:20:32;;;;;;;5.57;3.92;;;;;;;;;;5073281;28;20051;-64
2021/01/30 02:23:32;;;;;;;9.05;4.60;;;;;;;;;;5072509;28;20048;-64
2021/01/30 02:26:36;;;;;;;9.65;4.70;;;;;;;;;;5072054;28;20049;-63
2021/01/30 02:29:40;;;;;;;6.07;3.67;;;;;;;;;;5072331;28;20574;-63
2021/01/30 02:32:44;;;;;;;6.45;4.28;;;;;;;;;;5075023;28;20044;-64
2021/01/30 02:35:48;;;;;;;6.88;3.80;;;;;;;;;;5078256;28;20049;-64
2021/01/30 02:38:33;;;;;;;6.13;3.70;;;;;;;;;;5085106;28;20044;-64
2021/01/30 02:41:20;;;;;;;9.00;4.10;;;;;;;;;;5091563;28;20099;-64
2021/01/30 02:44:06;;;;;;;4.47;3.38;;;;;;;;;;5085025;28;20066;-64
2021/01/30 02:46:54;;;;;;;6.47;3.55;;;;;;;;;;5071063;28;20048;-64
2021/01/30 02:49:40;;;;;;;3.92;2.88;;;;;;;;;;5079901;28;20055;-64
2021/01/30 02:52:27;;;;;;;7.03;4.53;;;;;;;;;;5091259;28;20441;-64
2021/01/30 02:55:13;;;;;;;7.05;4.85;;;;;;;;;;5088149;28;20048;-63
2021/01/30 02:57:58;;;;;;;8.25;5.45;;;;;;;;;;5070976;28;20107;-64
2021/01/30 03:00:43;;;;;;;4.70;3.22;;;;;;;;;;5085625;28;20052;-64
2021/01/30 03:03:28;;;;;;;7.95;4.50;;;;;;;;;;5071941;28;20509;-63
2021/01/30 03:06:37;;;;;;;8.75;5.70;;;;;;;;;;5071767;28;20143;-65
2021/01/30 03:09:25;;;;;;;10.10;5.47;;;;;;;;;;5084936;28;20129;-64
2021/01/30 03:12:13;;;;;;;8.45;4.55;;;;;;;;;;5091944;28;20044;-63
2021/01/30 03:15:27;;;;;;;9.30;5.32;;;;;;;;;;5090541;28;20056;-63
2021/01/30 03:18:12;;;;;;;6.15;4.63;;;;;;;;;;5045424;28;20059;-62
2021/01/30 03:20:58;;;;;;;7.95;6.20;;;;;;;;;;5090957;28;20046;-63
2021/01/30 03:23:43;;;;;;;9.10;5.90;;;;;;;;;;5074410;28;20098;-63
2021/01/30 03:26:28;;;;;;;7.70;4.97;;;;;;;;;;5071691;28;20041;-62
2021/01/30 03:29:14;;;;;;;7.70;5.03;;;;;;;;;;5076629;28;20043;-63
2021/01/30 03:31:59;;;;;;;6.20;4.85;;;;;;;;;;5091107;28;20055;-62
2021/01/30 03:34:45;;;;;;;8.32;6.10;;;;;;;;;;5092014;28;20048;-63
2021/01/30 03:37:30;;;;;;;10.25;6.55;;;;;;;;;;5076691;28;20051;-62
2021/01/30 03:40:16;;;;;;;11.07;6.80;;;;;;;;;;5077626;28;20067;-63
2021/01/30 03:43:01;;;;;;;12.63;6.60;;;;;;;;;;5089900;28;20048;-62
2021/01/30 03:45:46;;;;;;;9.85;6.13;;;;;;;;;;5091709;28;20044;-62
2021/01/30 03:48:32;;;;;;;9.98;6.68;;;;;;;;;;5090263;28;20121;-62
2021/01/30 03:51:17;;;;;;;12.20;7.47;;;;;;;;;;5091632;28;20509;-62
2021/01/30 03:54:03;;;;;;;14.70;7.30;;;;;;;;;;5089922;28;20048;-63
2021/01/30 03:56:48;;;;;;;8.98;6.78;;;;;;;;;;5091541;28;20055;-63
2021/01/30 03:59:34;;;;;;;8.45;6.50;;;;;;;;;;5090161;28;20459;-62
2021/01/30 04:02:19;;;;;;;12.13;7.40;;;;;;;;;;5091409;28;20040;-62
2021/01/30 04:05:05;;;;;;;10.20;7.43;;;;;;;;;;5091904;28;20133;-63
2021/01/30 04:07:51;;;;;;;10.95;7.72;;;;;;;;;;5071377;28;20137;-62
2021/01/30 04:10:37;;;;;;;12.15;8.18;;;;;;;;;;5071282;28;20052;-63
2021/01/30 04:13:22;;;;;;;15.15;9.30;;;;;;;;;;5080945;28;20428;-63
2021/01/30 04:16:07;;;;;;;12.93;8.90;;;;;;;;;;5091434;28;20177;-63
2021/01/30 04:18:53;;;;;;;15.90;9.45;;;;;;;;;;5091599;28;20048;-62
2021/01/30 04:21:38;;;;;;;14.52;9.20;;;;;;;;;;5073540;28;20406;-63
2021/01/30 04:24:23;;;;;;;14.88;8.48;;;;;;;;;;5074652;28;20052;-62
2021/01/30 04:27:09;;;;;;;12.23;8.95;;;;;;;;;;5084636;28;20040;-63
2021/01/30 04:29:54;;;;;;;14.95;9.57;;;;;;;;;;5095077;28;20048;-63
2021/01/30 04:32:39;;;;;;;12.98;9.13;;;;;;;;;;5094720;28;20086;-63
2021/01/30 04:35:26;;;;;;;15.23;9.00;;;;;;;;;;5074568;28;20040;-63
2021/01/30 04:38:12;;;;;;;13.80;9.23;;;;;;;;;;5074390;28;20483;-63
2021/01/30 04:41:04;;;;;;;13.38;8.75;;;;;;;;;;5084933;28;20094;-62
2021/01/30 04:43:53;;;;;;;11.52;8.68;;;;;;;;;;5074475;28;20033;-62
2021/01/30 04:46:56;;;;;;;13.23;7.75;;;;;;;;;;5074644;28;20048;-62
2021/01/30 04:49:47;;;;;;;12.95;9.32;;;;;;;;;;5075470;28;20049;-63
2021/01/30 04:52:51;;;;;;;14.25;7.97;;;;;;;;;;5073977;28;20449;-62
2021/01/30 04:55:47;;;;;;;11.32;6.75;;;;;;;;;;5093132;28;20498;-63
2021/01/30 04:58:41;;;;;;;14.20;8.50;;;;;;;;;;5093295;28;20044;-63
2021/01/30 05:01:36;;;;;;;12.02;9.07;;;;;;;;;;5073081;28;20049;-63
2021/01/30 05:04:22;;;;;;;17.95;9.35;;;;;;;;;;5073886;28;20045;-63
2021/01/30 05:07:14;;;;;;;12.02;7.75;;;;;;;;;;5091580;28;20044;-63
2021/01/30 05:10:00;;;;;;;15.27;10.20;;;;;;;;;;5085309;28;20036;-63
2021/01/30 05:12:48;;;;;;;13.98;10.13;;;;;;;;;;5073508;28;20051;-64
2021/01/30 05:15:33;;;;;;;15.43;9.18;;;;;;;;;;5073083;28;20045;-64
2021/01/30 05:18:27;;;;;;;12.88;8.88;;;;;;;;;;5084552;28;20486;-64
2021/01/30 05:21:14;;;;;;;14.32;8.80;;;;;;;;;;5092870;28;20133;-64
2021/01/30 05:23:59;;;;;;;13.38;8.27;;;;;;;;;;5089785;28;20048;-64
2021/01/30 05:26:49;;;;;;;11.07;7.97;;;;;;;;;;5073343;28;20514;-62
2021/01/30 05:29:38;;;;;;;12.65;8.95;;;;;;;;;;5072221;28;20044;-63
2021/01/30 05:32:32;;;;;;;13.95;8.30;;;;;;;;;;5087247;28;20048;-62
2021/01/30 05:35:18;;;;;;;11.85;8.45;;;;;;;;;;5093721;28;20040;-63
2021/01/30 05:38:06;;;;;;;14.32;9.13;;;;;;;;;;5088332;28;20047;-64
2021/01/30 05:40:53;;;;;;;14.23;8.85;;;;;;;;;;5072227;28;20111;-64
2021/01/30 05:44:16;;;;;;;14.07;9.07;;;;;;;;;;5072177;28;20051;-64
2021/01/30 05:47:02;;;;;;;14.85;8.50;;;;;;;;;;4999894;28;20518;-64
2021/01/30 05:49:50;;;;;;;16.40;9.07;;;;;;;;;;4970474;28;20045;-64
2021/01/30 05:52:37;;;;;;;15.27;8.63;;;;;;;;;;5066604;28;20053;-64
2021/01/30 05:55:23;;;;;;;16.90;10.40;;;;;;;;;;5072969;28;20047;-64
2021/01/30 05:58:10;;;;;;;14.88;9.20;;;;;;;;;;5081739;28;20040;-64
2021/01/30 06:01:14;;;;;;;13.23;8.52;;;;;;;;;;5085707;28;20486;-64
2021/01/30 06:03:59;;;;;;;18.80;9.80;;;;;;;;;;5091748;28;20048;-64
2021/01/30 06:06:50;;;;;;;20.83;10.18;;;;;;;;;;5092911;28;20464;-64
2021/01/30 06:09:38;;;;;;;18.10;9.85;;;;;;;;;;5078135;28;20044;-64
2021/01/30 06:12:25;;;;;;;17.13;9.40;;;;;;;;;;5072732;28;20052;-64
2021/01/30 06:15:12;;;;;;;15.45;9.20;;;;;;;;;;5076167;28;20048;-64
2021/01/30 06:17:57;;;;;;;14.07;9.80;;;;;;;;;;5091660;28;20413;-64
2021/01/30 06:20:42;;;;;;;15.35;9.45;;;;;;;;;;5092923;28;20052;-64
2021/01/30 06:23:28;;;;;;;15.02;9.35;;;;;;;;;;5076341;28;20040;-64
2021/01/30 06:26:20;;;;;;;13.30;8.60;;;;;;;;;;5071427;28;20048;-64
2021/01/30 06:29:07;;;;;;;12.68;8.30;;;;;;;;;;5076832;28;20040;-64
2021/01/30 06:31:52;;;;;;;12.18;8.75;;;;;;;;;;5091639;28;20048;-65
2021/01/30 06:34:38;;;;;;;15.18;9.20;;;;;;;;;;5091464;28;20055;-64
2021/01/30 06:37:32;;;;;;;12.73;8.70;;;;;;;;;;5076029;28;20510;-64
2021/01/30 06:40:23;;;;;;;11.68;8.18;;;;;;;;;;5072241;28;20116;-64
2021/01/30 06:43:12;;;;;;;11.02;7.95;;;;;;;;;;5071654;28;20387;-64
2021/01/30 06:46:08;;;;;;;10.70;6.90;;;;;;;;;;5071401;28;20044;-64
2021/01/30 06:48:54;;;;;;;10.70;6.55;;;;;;;;;;5072148;28;20495;-64
2021/01/30 06:51:40;;;;;;;10.38;7.60;;;;;;;;;;5079301;28;20044;-65
2021/01/30 06:54:27;;;;;;;13.63;7.63;;;;;;;;;;5078345;28;20044;-64
2021/01/30 06:57:16;;;;;;;8.10;6.30;;;;;;;;;;5078979;28;20128;-65
2021/01/30 07:00:04;;;;;;;9.30;7.13;;;;;;;;;;5072460;28;20044;-64
2021/01/30 07:02:50;;;;;;;10.88;6.82;;;;;;;;;;5071809;28;20406;-63
2021/01/30 07:05:48;;;;;;;12.57;6.35;;;;;;;;;;5071968;28;20052;-63
2021/01/30 07:08:43;;;;;;;11.60;7.03;;;;;;;;;;5081691;28;20044;-63
2021/01/30 07:11:34;;;;;;;11.40;6.35;;;;;;;;;;5091024;28;20115;-63
2021/01/30 07:14:29;;;;;;;9.73;6.25;;;;;;;;;;5084157;28;20426;-63
2021/01/30 07:17:18;;;;;;;9.15;6.75;;;;;;;;;;5070829;28;20136;-63
2021/01/30 07:20:08;;;;;;;7.72;5.20;;;;;;;;;;5071936;28;20045;-63
2021/01/30 07:23:05;;;;;;;10.98;7.72;;;;;;;;;;5070680;28;20424;-63
2021/01/30 07:25:50;;;;;;;8.20;5.45;;;;;;;;;;5070844;28;20040;-64
2021/01/30 07:28:39;;;;;;;11.50;6.95;;;;;;;;;;5083183;28;20044;-65
2021/01/30 07:31:35;;;;;;;11.10;7.18;;;;;;;;;;5090849;28;20051;-64
2021/01/30 07:34:24;;;;;;;12.18;7.03;;;;;;;;;;5088871;28;20175;-64
2021/01/30 07:37:15;;;;;;;10.98;7.53;;;;;;;;;;5090922;28;20060;-65
2021/01/30 07:40:04;;;;;;;14.13;7.45;;;;;;;;;;5090806;28;20048;-64
2021/01/30 07:42:49;;;;;;;9.25;6.90;;;;;;;;;;5075751;28;20041;-64
2021/01/30 07:45:36;;;;;;;11.25;7.10;;;;;;;;;;5072922;28;20048;-64
2021/01/30 07:48:25;;;;;;;10.35;6.80;;;;;;;;;;5081046;28;20059;-64
2021/01/30 07:51:14;;;;;;;13.10;8.38;;;;;;;;;;5089020;28;20068;-64
2021/01/30 07:54:00;;;;;;;15.45;7.63;;;;;;;;;;5090225;28;20131;-64
2021/01/30 07:56:49;;;;;;;11.70;7.97;;;;;;;;;;5082578;28;20105;-65
2021/01/30 07:59:53;;;;;;;10.02;6.88;;;;;;;;;;5080488;28;20039;-64
2021/01/30 08:02:57;;;;;;;12.15;7.10;;;;;;;;;;5074968;28;20042;-63
2021/01/30 08:06:01;;;;;;;12.32;7.57;;;;;;;;;;5075115;28;20052;-65
2021/01/30 08:08:58;;;;;;;9.20;6.35;;;;;;;;;;5084488;28;20068;-64
2021/01/30 08:11:47;;;;;;;10.05;7.55;;;;;;;;;;5094212;28;20174;-64
2021/01/30 08:14:51;;;;;;;10.88;7.40;;;;;;;;;;5109257;22;20562;-64
2021/01/30 08:17:36;;;;;;;9.43;5.93;;;;;;;;;;5054971;28;20048;-64
2021/01/30 08:20:24;;;;;;;9.73;6.43;;;;;;;;;;5072919;28;20040;-64
2021/01/30 08:23:19;;;;;;;7.53;5.68;;;;;;;;;;5073618;28;20418;-64
2021/01/30 08:26:08;;;;;;;10.07;6.93;;;;;;;;;;5074718;28;20183;-64
2021/01/30 08:29:12;;;;;;;9.82;6.85;;;;;;;;;;5069299;28;20128;-64
2021/01/30 08:32:00;;;;;;;10.52;6.63;;;;;;;;;;5054614;28;20119;-64
2021/01/30 08:34:45;;;;;;;10.02;5.93;;;;;;;;;;5054426;28;20532;-64
2021/01/30 08:37:34;;;;;;;8.73;6.30;;;;;;;;;;5054243;28;20037;-64
2021/01/30 08:40:19;;;;;;;10.00;7.15;;;;;;;;;;5067209;28;20053;-64
2021/01/30 08:43:04;;;;;;;9.55;6.65;;;;;;;;;;5074205;28;20040;-64
2021/01/30 08:45:50;;;;;;;10.15;7.65;;;;;;;;;;5073455;28;20125;-64
2021/01/30 08:48:35;;;;;;;10.95;7.57;;;;;;;;;;5073503;28;20033;-64
2021/01/30 08:51:20;;;;;;;12.02;8.07;;;;;;;;;;5055589;28;20446;-65
2021/01/30 08:54:24;;;;;;;10.80;7.97;;;;;;;;;;5054135;28;20491;-65
2021/01/30 08:57:29;;;;;;;10.85;7.63;;;;;;;;;;5054080;28;20445;-65
2021/01/30 09:00:17;;;;;;;11.73;6.63;;;;;;;;;;5060394;28;20041;-65
2021/01/30 09:03:02;;;;;;;12.55;8.20;;;;;;;;;;5074142;28;20064;-66
2021/01/30 09:05:48;;;;;;;12.93;7.13;;;;;;;;;;5073776;28;20068;-64
2021/01/30 09:08:38;;;;;;;12.52;7.22;;;;;;;;;;5073920;28;20123;-64
2021/01/30 09:11:42;;;;;;;11.38;7.32;;;;;;;;;;5061183;28;20045;-64
2021/01/30 09:14:28;;;;;;;12.05;7.93;;;;;;;;;;5052291;28;20045;-64
2021/01/30 09:17:22;;;;;;;11.57;7.70;;;;;;;;;;5052725;28;20049;-64
2021/01/30 09:20:07;;;;;;;11.73;7.25;;;;;;;;;;5052013;28;20091;-64
2021/01/30 09:23:01;;;;;;;9.90;7.20;;;;;;;;;;5052920;28;20495;-63
2021/01/30 09:25:54;;;;;;;12.38;6.95;;;;;;;;;;5051765;28;20041;-63
2021/01/30 09:28:39;;;;;;;9.68;7.72;;;;;;;;;;5049874;28;20491;-64
2021/01/30 09:31:24;;;;;;;9.55;7.28;;;;;;;;;;5059119;28;20079;-63
2021/01/30 09:34:15;;;;;;;11.43;7.28;;;;;;;;;;5073299;28;20075;-64
2021/01/30 09:37:00;;;;;;;9.05;6.80;;;;;;;;;;5073234;28;20062;-63
2021/01/30 09:39:46;;;;;;;13.85;8.85;;;;;;;;;;5073217;28;20048;-64
2021/01/30 09:42:31;;;;;;;10.45;7.78;;;;;;;;;;5058908;28;20033;-64
2021/01/30 09:45:18;;;;;;;9.75;7.75;;;;;;;;;;5053298;28;20044;-65
2021/01/30 09:48:05;;;;;;;12.50;8.07;;;;;;;;;;5052996;28;20045;-64
2021/01/30 09:50:54;;;;;;;8.63;7.43;;;;;;;;;;5051967;28;20041;-64
2021/01/30 09:53:44;;;;;;;9.93;7.53;;;;;;;;;;5071604;28;20498;-64
2021/01/30 09:56:34;;;;;;;10.90;8.55;;;;;;;;;;5071586;28;20499;-64
2021/01/30 09:59:24;;;;;;;10.80;7.72;;;;;;;;;;5072742;28;20487;-64
2021/01/30 10:02:12;;;;;;;10.63;7.57;;;;;;;;;;5070085;28;20037;-64
2021/01/30 10:05:07;;;;;;;10.52;7.32;;;;;;;;;;5072662;28;20056;-64
2021/01/30 10:07:54;;;;;;;9.32;8.02;;;;;;;;;;5057741;28;20041;-64
2021/01/30 10:10:39;;;;;;;10.93;8.35;;;;;;;;;;5072518;28;20040;-64
2021/01/30 10:13:24;;;;;;;12.48;8.95;;;;;;;;;;5062752;28;20044;-64
2021/01/30 10:16:16;;;;;;;11.65;8.05;;;;;;;;;;5051511;28;20527;-64
2021/01/30 10:19:07;;;;;;;8.97;8.00;;;;;;;;;;5051749;28;20490;-64
2021/01/30 10:21:53;;;;;;;9.77;7.88;;;;;;;;;;5052364;28;20426;-64
2021/01/30 10:24:38;;;;;;;11.35;8.02;;;;;;;;;;5068012;28;20486;-64
2021/01/30 10:27:24;;;;;;;10.30;7.60;;;;;;;;;;5072346;28;20044;-64
2021/01/30 10:30:10;;;;;;;9.27;6.97;;;;;;;;;;5072398;28;20631;-64
2021/01/30 10:32:56;;;;;;;9.43;7.07;;;;;;;;;;5071906;28;20514;-64
2021/01/30 10:35:44;;;;;;;7.20;6.05;;;;;;;;;;5017623;28;20041;-64
2021/01/30 10:38:30;;;;;;;9.93;7.43;;;;;;;;;;5032411;28;20050;-64
2021/01/30 10:41:18;;;;;;;9.75;7.43;;;;;;;;;;5031467;28;20049;-65
2021/01/30 10:44:04;;;;;;;10.90;7.90;;;;;;;;;;5044240;28;20041;-65
2021/01/30 10:46:49;;;;;;;10.60;8.13;;;;;;;;;;5072065;28;20044;-66
2021/01/30 10:49:36;;;;;;;10.07;7.53;;;;;;;;;;5071202;28;20044;-66
2021/01/30 10:52:24;;;;;;;10.35;8.07;;;;;;;;;;5071021;28;20051;-65
2021/01/30 10:55:42;;;;;;;8.95;7.55;;;;;;;;;;5059441;28;20045;-66
2021/01/30 10:58:27;;;;;;;11.32;7.97;;;;;;;;;;5034734;28;20053;-66
2021/01/30 11:01:14;;;;;;;10.07;7.30;;;;;;;;;;5051826;28;20053;-66
2021/01/30 11:04:02;;;;;;;8.40;6.70;;;;;;;;;;5050868;28;20069;-65
2021/01/30 11:06:48;;;;;;;10.60;8.13;;;;;;;;;;5032087;28;20116;-65
2021/01/30 11:09:36;;;;;;;11.48;8.18;;;;;;;;;;5030993;28;20068;-66
2021/01/30 11:12:25;;;;;;;10.70;7.93;;;;;;;;;;5031041;28;20046;-66
2021/01/30 11:15:15;;;;;;;9.63;7.18;;;;;;;;;;5042689;28;20127;-66
2021/01/30 11:18:18;;;;;;;11.25;7.72;;;;;;;;;;5061526;28;20052;-66
2021/01/30 11:21:04;;;;;;;8.85;7.63;;;;;;;;;;5065940;28;20510;-66
2021/01/30 11:23:50;;;;;;;8.55;7.53;;;;;;;;;;5058711;28;20051;-65
2021/01/30 11:26:39;;;;;;;9.45;7.40;;;;;;;;;;5059865;28;20053;-66
2021/01/30 11:29:31;;;;;;;9.77;8.15;;;;;;;;;;5060886;28;20045;-66
2021/01/30 11:32:18;;;;;;;11.07;8.15;;;;;;;;;;5064458;28;20053;-66
2021/01/30 11:35:04;;;;;;;10.57;7.53;;;;;;;;;;5060007;28;20499;-66
2021/01/30 11:37:49;;;;;;;8.93;7.70;;;;;;;;;;5047615;28;20411;-65
2021/01/30 11:40:35;;;;;;;9.23;7.28;;;;;;;;;;5048041;28;20738;-65
2021/01/30 11:43:20;;;;;;;10.73;7.35;;;;;;;;;;5048491;28;20428;-65
2021/01/30 11:46:09;;;;;;;8.55;6.43;;;;;;;;;;5045638;28;20087;-65
2021/01/30 11:49:02;;;;;;;8.70;7.50;;;;;;;;;;5056703;28;20045;-65
2021/01/30 11:51:47;;;;;;;8.65;6.03;;;;;;;;;;5049372;28;20063;-66
2021/01/30 11:54:32;;;;;;;10.15;6.80;;;;;;;;;;5045846;28;20476;-65
2021/01/30 11:57:18;;;;;;;8.10;6.88;;;;;;;;;;5052328;28;20049;-65
2021/01/30 12:00:05;;;;;;;11.32;8.27;;;;;;;;;;5051428;28;20044;-66
2021/01/30 12:02:51;;;;;;;9.65;7.05;;;;;;;;;;5054558;28;20028;-65
2021/01/30 12:05:37;;;;;;;10.10;8.30;;;;;;;;;;5058485;28;20045;-65
2021/01/30 12:08:22;;;;;;;10.43;7.88;;;;;;;;;;5056802;28;20072;-65
2021/01/30 12:11:08;;;;;;;11.18;8.00;;;;;;;;;;5052425;28;20041;-66
2021/01/30 12:13:54;;;;;;;11.65;9.23;;;;;;;;;;5046094;28;20040;-65
2021/01/30 12:16:39;;;;;;;12.98;10.05;;;;;;;;;;5053984;28;20080;-66
2021/01/30 12:19:24;;;;;;;12.05;9.77;;;;;;;;;;5057339;28;20048;-66
2021/01/30 12:22:10;;;;;;;12.00;9.98;;;;;;;;;;5063737;28;20041;-66
2021/01/30 12:24:55;;;;;;;11.80;9.43;;;;;;;;;;5061342;28;20041;-66
2021/01/30 12:27:41;;;;;;;12.52;9.68;;;;;;;;;;5061476;28;20040;-65
2021/01/30 12:30:28;;;;;;;12.40;10.13;;;;;;;;;;5063407;28;20041;-65
2021/01/30 12:33:13;;;;;;;12.95;10.57;;;;;;;;;;5061757;28;20043;-66
2021/01/30 12:35:58;;;;;;;14.05;10.25;;;;;;;;;;5061975;28;20041;-65
2021/01/30 12:38:43;;;;;;;13.60;10.60;;;;;;;;;;5063517;28;20049;-66
2021/01/30 12:41:29;;;;;;;14.60;11.23;;;;;;;;;;5063418;28;20398;-66
2021/01/30 12:44:14;;;;;;;13.73;11.27;;;;;;;;;;5060591;28;20044;-65
2021/01/30 12:46:59;;;;;;;13.45;10.90;;;;;;;;;;5062019;28;20083;-65
2021/01/30 12:49:44;;;;;;;13.10;10.85;;;;;;;;;;5063602;28;20380;-67
2021/01/30 12:52:30;;;;;;;11.43;9.45;;;;;;;;;;5064519;28;20115;-65
2021/01/30 12:55:15;;;;;;;11.90;9.93;;;;;;;;;;5060754;28;20049;-66
2021/01/30 12:58:10;;;;;;;10.85;9.25;;;;;;;;;;5061336;28;20037;-66
2021/01/30 13:00:55;;;;;;;11.75;9.02;;;;;;;;;;5034073;28;20453;-66
2021/01/30 13:03:41;;;;;;;13.10;10.13;;;;;;;;;;5060075;28;20036;-66
2021/01/30 13:06:26;;;;;;;11.20;8.93;;;;;;;;;;5073853;28;20044;-65
2021/01/30 13:09:11;;;;;;;10.50;9.32;;;;;;;;;;5073936;28;20044;-66
2021/01/30 13:11:57;;;;;;;10.13;8.75;;;;;;;;;;5073908;28;20044;-66
2021/01/30 13:14:42;;;;;;;9.35;8.23;;;;;;;;;;5072144;28;20047;-65
2021/01/30 13:17:28;;;;;;;9.98;7.82;;;;;;;;;;5073685;28;20041;-66
2021/01/30 13:20:14;;;;;;;10.15;8.45;;;;;;;;;;5073829;28;20052;-65
2021/01/30 13:23:00;;;;;;;9.75;8.07;;;;;;;;;;5071893;28;20403;-65
2021/01/30 13:25:45;;;;;;;12.05;8.48;;;;;;;;;;5052607;28;20069;-66
2021/01/30 13:28:30;;;;;;;9.63;8.15;;;;;;;;;;5053915;28;20052;-65
2021/01/30 13:31:15;;;;;;;9.30;8.07;;;;;;;;;;5052534;28;20045;-66
2021/01/30 13:34:00;;;;;;;12.23;8.75;;;;;;;;;;5057051;28;20036;-66
2021/01/30 16:42:50;;;;;;;14.32;10.32;;;;;;;;;;5173496;27;20204;-65
2021/01/30 16:45:35;;;;;;;14.63;11.23;;;;;;;;;;5176513;27;20042;-63
2021/01/30 16:48:20;;;;;;;14.98;10.40;;;;;;;;;;5167713;27;20491;-63
2021/01/30 16:51:06;;;;;;;14.13;9.57;;;;;;;;;;5168885;27;20507;-63
2021/01/30 16:53:51;;;;;;;12.27;10.30;;;;;;;;;;5164534;27;20039;-64
2021/01/30 16:56:36;;;;;;;11.77;10.23;;;;;;;;;;5157337;27;20035;-63
2021/01/30 16:59:24;;;;;;;11.13;9.68;;;;;;;;;;5164656;27;20043;-64
2021/01/30 17:02:09;;;;;;;14.93;10.23;;;;;;;;;;5147774;27;20046;-64
2021/01/30 17:04:54;;;;;;;17.65;12.52;;;;;;;;;;5147593;27;20051;-64
2021/01/30 17:07:39;;;;;;;13.27;10.13;;;;;;;;;;5147840;27;20042;-64
2021/01/30 17:10:25;;;;;;;14.05;10.27;;;;;;;;;;5149685;27;20047;-64
2021/01/30 17:13:10;;;;;;;15.10;11.35;;;;;;;;;;5169349;27;20035;-64
2021/01/30 17:15:57;;;;;;;15.25;11.65;;;;;;;;;;5168193;27;20047;-64
2021/01/30 17:18:42;;;;;;;14.85;10.70;;;;;;;;;;5168781;27;20042;-63
2021/01/30 17:21:28;;;;;;;16.77;12.02;;;;;;;;;;5160742;27;20496;-63
2021/01/30 17:24:13;;;;;;;13.07;10.07;;;;;;;;;;5173961;27;20503;-64
2021/01/30 17:26:58;;;;;;;12.80;10.50;;;;;;;;;;5188691;27;20038;-64
2021/01/30 17:29:43;;;;;;;13.13;11.02;;;;;;;;;;5189267;27;20042;-64
2021/01/30 17:32:28;;;;;;;14.55;11.70;;;;;;;;;;5163444;27;20043;-64
2021/01/30 17:35:14;;;;;;;15.63;11.75;;;;;;;;;;5148023;27;20043;-64
2021/01/30 17:38:00;;;;;;;14.20;11.40;;;;;;;;;;5141714;27;20046;-64
2021/01/30 17:40:45;;;;;;;14.77;11.55;;;;;;;;;;5146500;27;20461;-64
2021/01/30 17:43:30;;;;;;;15.05;11.85;;;;;;;;;;5166306;27;20047;-64
2021/01/30 17:46:18;;;;;;;14.27;10.88;;;;;;;;;;5166756;27;20099;-64
2021/01/30 17:49:04;;;;;;;15.10;11.73;;;;;;;;;;5168111;27;20686;-64
2021/01/30 17:51:49;;;;;;;15.48;12.43;;;;;;;;;;5166078;27;20047;-64
2021/01/30 17:54:34;;;;;;;16.20;11.98;;;;;;;;;;5169035;27;20053;-64
2021/01/30 17:57:19;;;;;;;15.93;11.38;;;;;;;;;;5175154;27;20050;-64
2021/01/30 18:00:08;;;;;;;15.50;11.75;;;;;;;;;;5174933;27;20121;-64
2021/01/30 18:02:53;;;;;;;16.25;12.15;;;;;;;;;;5165641;27;20050;-64
2021/01/30 18:05:38;;;;;;;17.27;12.93;;;;;;;;;;5153872;27;20068;-64
2021/01/30 18:08:24;;;;;;;16.83;13.68;;;;;;;;;;5154090;27;20062;-64
2021/01/30 18:11:09;;;;;;;17.85;13.00;;;;;;;;;;5153392;27;20049;-64
2021/01/30 18:13:54;;;;;;;18.42;14.23;;;;;;;;;;5140850;27;20129;-64
2021/01/30 18:16:41;;;;;;;17.55;14.27;;;;;;;;;;5132702;27;20571;-67
2021/01/30 18:19:26;;;;;;;19.02;14.52;;;;;;;;;;5133693;27;20034;-62
2021/01/30 18:22:12;;;;;;;20.05;14.52;;;;;;;;;;5133211;27;20143;-65
2021/01/30 18:24:57;;;;;;;19.48;14.52;;;;;;;;;;5132376;27;20431;-62
2021/01/30 18:27:42;;;;;;;20.67;14.40;;;;;;;;;;5132506;27;20146;-64
2021/01/30 18:30:29;;;;;;;19.90;14.88;;;;;;;;;;5133333;27;20039;-64
2021/01/30 18:33:14;;;;;;;21.50;15.18;;;;;;;;;;5132588;27;20055;-64
2021/01/30 18:35:59;;;;;;;22.98;16.13;;;;;;;;;;5130666;27;20047;-64
2021/01/30 18:38:44;;;;;;;24.17;16.27;;;;;;;;;;5127244;27;20043;-64
2021/01/30 18:41:29;;;;;;;23.75;15.63;;;;;;;;;;5131921;27;20055;-64
2021/01/30 18:44:15;;;;;;;20.88;15.80;;;;;;;;;;5137680;27;20042;-64
2021/01/30 18:47:00;;;;;;;25.25;16.48;;;;;;;;;;5150941;27;20054;-64
2021/01/30 18:49:46;;;;;;;25.65;18.33;;;;;;;;;;5152751;27;20042;-64
2021/01/30 18:52:31;;;;;;;25.27;18.65;;;;;;;;;;5153519;27;20046;-62
2021/01/30 18:55:17;;;;;;;27.85;19.90;;;;;;;;;;5142550;27;20034;-64
2021/01/30 18:58:02;;;;;;;26.20;17.95;;;;;;;;;;5151081;27;20504;-62
2021/01/30 19:00:47;;;;;;;32.47;22.02;;;;;;;;;;5152839;27;20408;-63
2021/01/30 19:03:33;;;;;;;33.42;22.52;;;;;;;;;;5153159;27;20145;-62
2021/01/30 19:06:18;;;;;;;36.60;24.67;;;;;;;;;;5136594;27;20039;-63
2021/01/30 19:09:04;;;;;;;38.80;25.50;;;;;;;;;;5131883;27;20039;-63
2021/01/30 19:11:49;;;;;;;39.67;25.60;;;;;;;;;;5139982;27;20521;-64
2021/01/30 19:14:34;;;;;;;45.47;29.10;;;;;;;;;;5140471;27;20065;-63
2021/01/30 19:17:19;;;;;;;47.85;28.25;;;;;;;;;;5134433;27;20051;-63
2021/01/30 19:20:05;;;;;;;47.83;29.23;;;;;;;;;;5141273;27;20126;-63
2021/01/30 19:22:50;;;;;;;47.92;31.17;;;;;;;;;;5142600;27;20054;-63
2021/01/30 19:25:35;;;;;;;50.85;31.77;;;;;;;;;;5141455;27;20050;-62
2021/01/30 19:28:21;;;;;;;54.70;32.38;;;;;;;;;;5144401;27;20514;-62
2021/01/30 19:31:06;;;;;;;49.05;28.85;;;;;;;;;;5143502;27;20035;-63
2021/01/30 19:33:52;;;;;;;51.47;30.50;;;;;;;;;;5139234;27;20047;-63
2021/01/30 19:36:37;;;;;;;49.38;29.95;;;;;;;;;;5141015;27;20038;-64
2021/01/30 19:39:23;;;;;;;54.25;32.13;;;;;;;;;;5136774;27;20043;-63